Date,TemperatureHighF,TemperatureAvgF,TemperatureLowF,DewpointHighF,DewpointAvgF,DewpointLowF,HumidityHigh,HumidityAvg,HumidityLow,PressureMaxIn,PressureMinIn,WindSpeedMaxMPH,WindSpeedAvgMPH,GustSpeedMaxMPH,PrecipitationSumIn
2013-1-1,41,38,34,31,30,26,79,71,64,30.02,29.89,10,1,11,0.01
2013-1-2,35,30,25,26,19,14,76,64,47,30.23,29.98,15,3,16,0.00
2013-1-3,37,28,17,23,19,13,88,67,52,30.24,30.11,9,1,9,0.00
2013-1-4,41,34,30,26,23,22,76,63,54,30.19,30.08,17,2,17,0.00
2013-1-5,42,36,31,27,24,21,72,63,52,30.36,30.13,15,2,17,0.00
2013-1-6,47,39,29,32,29,24,87,68,53,30.16,30.00,9,1,10,0.00
2013-1-7,42,38,28,34,28,23,83,67,57,30.42,30.13,15,2,17,0.00
2013-1-8,51,36,25,36,29,22,90,75,53,30.39,30.32,8,0,8,0.00
2013-1-9,48,35,26,40,31,24,96,86,56,30.38,30.20,9,0,11,0.00
2013-1-10,51,44,37,34,31,27,72,61,49,30.59,30.38,12,1,12,0.00
2013-1-11,45,42,39,41,36,30,97,80,63,30.45,30.07,11,1,11,0.08
2013-1-12,58,46,39,51,44,38,99,92,76,30.15,30.06,4,0,4,0.00
2013-1-13,59,51,43,54,49,41,98,94,82,30.07,29.90,7,0,9,0.00
2013-1-14,53,48,38,51,42,32,99,82,57,30.30,29.90,17,3,18,0.24
2013-1-15,40,38,34,37,35,32,96,91,81,30.33,30.14,8,0,8,0.48
2013-1-16,38,35,33,37,34,32,98,97,95,30.14,29.83,12,0,13,0.63
2013-1-17,42,38,35,38,31,28,98,76,57,30.12,29.96,13,2,14,0.00
2013-1-18,37,32,28,30,19,13,80,59,42,30.48,30.04,26,4,26,0.00
2013-1-19,58,42,29,34,28,21,80,60,32,30.35,29.89,17,3,18,0.00
2013-1-20,51,39,32,34,22,14,71,51,26,30.07,29.79,21,3,22,0.00
2013-1-21,41,31,25,24,18,10,73,59,44,30.08,29.79,24,4,27,0.00
2013-1-22,24,17,13,10,1,-3,61,49,39,30.28,29.96,23,6,24,0.00
2013-1-23,25,17,11,11,3,0,70,53,38,30.34,30.12,15,2,16,0.00
2013-1-24,26,20,15,14,9,1,89,65,43,30.51,30.08,22,4,22,0.00
2013-1-25,22,18,15,16,9,2,88,69,51,30.51,30.05,12,1,13,0.00
2013-1-26,32,24,18,25,20,15,92,86,71,30.43,30.07,5,0,6,0.03
2013-1-27,34,28,19,24,19,14,83,68,58,30.58,30.43,10,1,10,0.01
2013-1-28,41,35,31,40,32,23,96,89,72,30.44,30.01,9,1,11,0.14
2013-1-29,68,56,41,57,50,40,96,81,66,30.08,29.90,15,2,15,0.00
2013-1-30,69,59,55,62,56,51,98,89,76,29.91,29.17,30,4,30,1.69
2013-1-31,55,39,28,55,27,12,99,64,49,29.87,29.14,28,5,28,0.35
2013-2-1,30,23,17,23,12,6,92,61,49,30.36,29.80,32,6,32,0.00
2013-2-2,27,21,12,23,13,5,86,72,59,30.37,29.99,11,2,14,0.00
2013-2-3,34,27,21,30,24,16,94,86,62,30.00,29.80,23,2,24,0.00
2013-2-4,36,29,23,28,18,12,90,63,50,30.07,29.86,20,3,21,0.00
2013-2-5,37,32,30,34,30,28,95,91,88,29.92,29.83,5,0,5,0.01
2013-2-6,38,34,27,32,28,21,96,78,64,30.33,29.91,13,2,15,0.00
2013-2-7,39,32,24,29,24,20,86,74,61,30.41,30.19,12,1,13,0.00
2013-2-8,40,35,32,36,30,23,94,83,67,30.19,29.77,27,4,31,0.00
2013-2-9,38,32,27,24,19,16,72,61,45,30.38,29.95,27,8,34,0.00
2013-2-10,44,33,17,25,20,14,91,61,40,30.45,30.17,13,2,15,0.00
2013-2-11,59,47,35,50,39,25,96,76,32,30.17,29.64,26,3,26,0.12
2013-2-12,54,46,34,33,30,27,75,52,39,29.97,29.81,25,4,27,0.00
2013-2-13,42,34,27,33,29,24,96,82,63,29.92,29.64,8,0,8,0.05
2013-2-14,49,38,30,34,31,26,97,75,54,29.99,29.77,9,1,10,0.07
2013-2-15,55,40,34,38,33,27,95,75,49,30.01,29.90,16,1,19,0.17
2013-2-16,36,32,28,34,26,18,96,78,56,29.98,29.85,18,3,18,0.00
2013-2-17,29,25,22,19,13,7,74,60,47,30.22,29.85,28,7,28,0.00
2013-2-18,42,30,16,23,13,7,73,50,36,30.37,30.09,20,2,20,0.00
2013-2-19,48,40,34,42,29,20,87,65,47,30.09,29.64,20,4,23,0.04
2013-2-20,36,29,24,23,15,10,61,56,52,30.16,29.84,30,7,30,0.00
2013-2-21,36,28,23,19,16,11,72,60,49,30.33,30.11,23,6,25,0.00
2013-2-22,31,29,25,29,24,18,90,81,68,30.37,30.17,11,1,11,0.00
2013-2-23,46,37,31,40,34,29,96,91,81,30.18,29.80,5,0,6,0.02
2013-2-24,47,38,29,38,30,20,96,74,49,30.11,29.78,22,4,22,0.00
2013-2-25,46,34,22,28,23,18,88,65,45,30.21,30.11,7,0,8,0.00
2013-2-26,40,36,30,39,31,23,97,83,71,30.19,29.62,18,1,19,0.89
2013-2-27,52,43,36,43,36,34,98,80,54,29.67,29.53,17,2,21,0.04
2013-2-28,43,40,35,36,30,27,80,69,60,29.71,29.61,15,2,15,0.00
2013-3-1,41,38,33,33,29,24,81,71,57,29.89,29.71,18,5,18,0.00
2013-3-2,34,31,29,25,23,21,76,71,64,29.89,29.82,17,6,18,0.00
2013-3-3,37,32,28,23,21,18,78,64,52,29.92,29.80,21,7,22,0.00
2013-3-4,40,33,27,22,19,15,67,57,44,30.03,29.92,23,6,27,0.00
2013-3-5,50,37,25,28,22,16,79,56,28,30.07,29.78,14,1,17,0.00
2013-3-6,40,36,32,34,32,28,97,87,66,30.01,29.66,23,4,26,0.79
2013-3-7,45,40,36,32,30,27,77,66,53,30.16,30.01,23,6,23,0.00
2013-3-8,47,40,35,31,29,25,76,64,52,30.29,30.14,26,8,31,0.00
2013-3-9,60,43,31,32,27,24,78,56,30,30.36,30.23,10,1,10,0.00
2013-3-10,64,47,29,35,30,24,88,55,31,30.29,30.15,19,3,19,0.00
2013-3-11,59,51,42,50,41,28,87,70,43,30.17,29.82,21,4,22,0.00
2013-3-12,58,50,41,53,43,30,96,78,62,29.95,29.71,22,7,24,0.89
2013-3-13,48,39,30,33,26,21,85,62,39,30.05,29.88,26,4,28,0.00
2013-3-14,41,35,30,22,20,17,65,53,40,30.12,30.02,27,8,29,0.00
2013-3-15,56,43,29,38,28,20,73,55,40,30.08,29.75,16,2,17,0.00
2013-3-16,49,42,35,40,35,33,92,79,61,29.91,29.62,12,2,16,0.00
2013-3-17,40,36,34,34,29,23,92,75,58,30.24,29.90,14,2,15,0.00
2013-3-18,36,33,30,32,28,23,96,82,61,30.29,29.88,11,1,14,0.00
2013-3-19,56,41,32,42,29,17,98,70,27,29.91,29.70,27,3,27,0.32
2013-3-20,50,41,32,29,20,16,76,45,30,29.96,29.73,28,4,28,0.00
2013-3-21,36,30,25,29,16,10,75,55,43,29.89,29.76,22,5,22,0.00
2013-3-22,42,34,24,23,19,13,67,56,45,30.00,29.86,21,4,21,0.00
2013-3-23,51,38,24,28,24,19,85,58,38,30.02,29.90,16,3,22,0.00
2013-3-24,42,34,27,32,26,21,94,72,54,29.99,29.62,7,0,7,0.00
2013-3-25,39,34,32,36,33,31,96,93,84,29.69,29.51,5,0,5,0.50
2013-3-26,47,39,31,38,31,27,98,76,46,29.99,29.68,18,3,22,0.14
2013-3-27,46,40,35,32,30,27,80,66,48,30.11,29.99,21,4,22,0.00
2013-3-28,45,41,34,34,32,27,80,70,60,30.22,30.06,22,4,22,0.00
2013-3-29,55,45,38,37,32,29,79,61,39,30.24,30.11,15,2,16,0.00
2013-3-30,59,44,29,35,28,23,93,58,29,30.22,30.07,12,1,12,0.00
2013-3-31,48,45,41,47,38,23,97,78,48,30.07,29.72,11,1,13,0.20
2013-4-1,58,46,38,47,36,19,97,72,43,29.97,29.72,24,4,26,0.00
2013-4-2,46,37,28,25,20,17,76,50,34,30.16,29.97,19,3,21,0.00
2013-4-3,48,36,26,24,20,16,76,53,31,30.39,30.16,21,4,25,0.00
2013-4-4,49,37,22,26,19,14,80,50,31,30.40,30.04,13,2,16,0.00
2013-4-5,62,48,34,36,30,22,89,54,32,30.05,29.80,22,4,23,0.00
2013-4-6,56,45,34,31,26,22,67,47,31,30.30,30.04,14,2,15,0.00
2013-4-7,70,56,42,47,38,26,66,52,42,30.20,29.90,19,6,21,0.00
2013-4-8,80,68,55,55,49,45,72,53,34,30.04,29.88,15,2,16,0.00
2013-4-9,84,73,62,61,55,50,68,54,40,30.04,29.86,13,2,13,0.00
2013-4-10,89,78,63,64,59,53,70,53,38,29.92,29.71,13,2,16,0.00
2013-4-11,83,70,57,64,59,53,92,68,47,29.86,29.66,17,2,21,0.00
2013-4-12,70,56,50,63,54,42,98,91,69,29.77,29.54,18,3,18,0.52
2013-4-13,68,56,45,43,38,33,79,54,34,29.94,29.77,12,2,18,0.00
2013-4-14,64,50,40,41,36,33,85,62,38,30.13,29.94,16,2,16,0.00
2013-4-15,65,60,55,54,50,45,74,70,62,30.23,30.12,13,3,14,0.00
2013-4-16,75,64,56,63,56,48,89,77,63,30.24,30.05,18,4,19,0.01
2013-4-17,71,64,57,65,59,54,99,85,70,30.18,30.08,12,1,13,0.29
2013-4-18,75,65,59,67,59,55,95,82,64,30.18,29.91,15,3,15,0.01
2013-4-19,74,65,52,67,59,41,95,80,63,29.92,29.53,26,6,27,0.58
2013-4-20,57,50,43,41,33,28,65,51,37,30.33,29.75,20,5,21,0.00
2013-4-21,55,44,34,34,28,24,73,55,38,30.58,30.33,12,1,13,0.00
2013-4-22,59,48,37,40,35,29,85,62,44,30.55,30.35,13,1,15,0.00
2013-4-23,61,47,36,47,40,33,89,75,58,30.39,30.07,8,0,8,0.00
2013-4-24,76,59,43,60,51,40,94,77,51,30.08,29.70,24,3,26,0.12
2013-4-25,63,52,42,44,36,33,74,56,36,30.28,30.01,23,3,26,0.00
2013-4-26,64,52,38,42,38,34,91,61,38,30.45,30.27,10,1,12,0.00
2013-4-27,71,56,37,47,41,35,93,62,38,30.39,30.23,10,1,12,0.00
2013-4-28,61,55,52,50,45,39,93,70,51,30.24,30.09,17,2,18,0.19
2013-4-29,60,56,52,58,54,49,97,93,80,30.10,30.00,11,1,12,0.16
2013-4-30,60,57,54,57,55,53,100,94,89,30.26,30.06,10,0,10,0.00
2013-5-1,71,60,49,54,45,38,97,62,33,30.39,30.26,15,1,15,0.00
2013-5-2,71,57,41,52,46,39,96,69,43,30.40,30.27,13,1,13,0.00
2013-5-3,70,56,44,51,46,42,94,71,45,30.35,30.24,14,2,15,0.00
2013-5-4,69,56,43,49,44,40,93,68,44,30.31,30.13,14,1,15,0.00
2013-5-5,66,53,44,48,43,40,88,69,47,30.21,30.09,12,1,14,0.00
2013-5-6,63,55,45,57,51,42,92,86,81,30.15,30.02,12,1,12,0.01
2013-5-7,64,60,58,62,59,57,97,94,90,30.03,29.90,13,1,13,1.17
2013-5-8,71,61,55,60,56,52,99,86,63,29.97,29.88,9,1,11,0.41
2013-5-9,73,60,50,64,56,50,98,87,63,29.97,29.88,10,0,10,0.13
2013-5-10,83,65,52,67,59,51,99,83,47,29.98,29.81,20,1,24,0.60
2013-5-11,74,65,60,67,61,54,99,89,63,29.84,29.68,14,1,19,0.44
2013-5-12,61,56,45,54,40,31,88,57,38,30.00,29.73,21,4,21,0.00
2013-5-13,58,48,39,35,32,27,81,54,33,30.15,29.99,19,3,21,0.00
2013-5-14,63,49,31,43,36,28,95,66,39,30.21,30.00,12,0,12,0.00
2013-5-15,84,67,50,69,54,40,84,64,48,30.00,29.63,14,1,14,0.00
2013-5-16,79,73,64,66,61,56,81,66,51,29.91,29.71,10,1,14,0.00
2013-5-17,82,69,54,65,58,52,98,70,48,30.08,29.90,9,0,11,0.00
2013-5-18,70,64,59,61,56,51,94,78,52,30.17,30.07,13,2,13,0.00
2013-5-19,71,64,58,66,62,57,98,93,84,30.17,30.04,7,0,8,0.00
2013-5-20,81,72,63,71,67,62,98,84,66,30.07,29.92,9,1,11,0.00
2013-5-21,87,76,65,75,69,64,98,82,62,29.95,29.80,12,1,13,0.00
2013-5-22,89,76,66,73,69,64,98,81,50,29.90,29.75,17,1,17,0.31
2013-5-23,79,69,64,71,66,63,99,92,72,29.85,29.69,12,1,12,0.27
2013-5-24,64,54,46,63,47,34,98,77,58,30.17,29.71,25,8,28,0.02
2013-5-25,63,51,42,43,37,34,76,60,41,30.19,30.08,22,7,24,0.00
2013-5-26,70,58,46,44,40,36,75,53,32,30.20,30.10,16,3,20,0.00
2013-5-27,68,56,41,53,47,40,97,72,47,30.27,30.15,6,0,7,0.00
2013-5-28,78,65,55,69,60,51,96,85,68,30.17,30.00,7,0,8,0.09
2013-5-29,89,76,60,71,66,59,99,74,47,30.08,30.01,8,1,13,0.00
2013-5-30,90,79,68,73,68,64,89,72,50,30.14,30.04,10,1,10,0.00
2013-5-31,89,78,67,69,66,62,92,70,42,30.11,29.96,13,2,13,0.00
2013-6-1,89,79,69,74,69,64,89,71,55,29.99,29.84,13,2,13,0.00
2013-6-2,81,74,70,74,68,64,95,83,72,29.84,29.77,11,1,13,0.45
2013-6-3,78,71,64,69,65,56,99,82,61,29.94,29.80,14,2,14,0.52
2013-6-4,76,65,52,56,52,46,88,65,42,30.10,29.94,13,1,13,0.00
2013-6-5,78,66,52,62,57,50,97,73,53,30.14,29.99,15,1,15,0.00
2013-6-6,68,65,63,64,59,50,98,83,60,30.01,29.82,16,1,16,0.80
2013-6-7,69,65,63,68,65,62,100,98,96,29.82,29.61,13,1,14,0.45
2013-6-8,79,69,64,66,62,59,97,79,61,30.06,29.70,12,2,12,0.00
2013-6-9,80,70,61,70,64,58,96,84,66,30.16,30.05,9,1,10,0.02
2013-6-10,81,71,68,76,69,65,99,95,81,30.06,29.72,12,1,14,0.90
2013-6-11,79,72,64,70,66,64,100,85,68,29.81,29.74,16,1,16,0.01
2013-6-12,89,76,65,74,68,63,96,79,53,29.83,29.73,11,1,12,0.04
2013-6-13,82,72,67,72,67,57,98,85,66,29.75,29.44,22,3,23,0.50
2013-6-14,78,69,62,61,57,55,80,67,47,29.95,29.59,17,4,22,0.00
2013-6-15,81,69,56,63,58,52,98,70,38,30.06,29.95,12,1,12,0.00
2013-6-16,80,71,62,71,64,58,93,79,65,30.00,29.84,10,1,11,0.00
2013-6-17,86,76,67,73,68,63,92,76,56,29.92,29.83,11,0,12,0.00
2013-6-18,77,72,65,73,69,64,95,90,82,29.87,29.74,11,0,11,0.45
2013-6-19,79,69,61,65,62,60,98,81,53,30.11,29.85,7,0,7,0.09
2013-6-20,80,70,59,68,63,57,99,81,63,30.21,30.10,16,2,16,0.00
2013-6-21,83,73,61,66,60,53,86,64,53,30.25,30.17,12,1,13,0.00
2013-6-22,87,75,64,72,67,56,96,76,57,30.20,30.07,9,1,11,0.00
2013-6-23,87,77,66,74,70,64,98,81,61,30.14,30.01,8,0,9,0.00
2013-6-24,90,77,69,76,70,67,95,81,57,30.09,29.98,14,1,17,0.00
2013-6-25,91,79,68,77,71,65,96,78,54,30.00,29.83,30,1,31,0.03
2013-6-26,88,75,65,77,69,64,98,84,57,29.90,29.77,9,1,9,0.00
2013-6-27,82,75,68,76,71,67,99,87,75,29.79,29.57,16,1,16,0.00
2013-6-28,88,76,68,74,68,64,96,79,58,29.58,29.43,22,1,29,0.00
2013-6-29,86,75,66,69,66,63,94,75,50,29.67,29.48,9,0,13,0.00
2013-6-30,87,75,67,76,70,66,99,88,68,29.80,29.65,12,1,13,0.00
2013-7-1,83,76,72,74,71,69,95,85,71,29.93,29.78,13,2,15,0.00
2013-7-2,83,77,73,75,72,70,96,87,74,30.10,29.92,17,2,19,0.04
2013-7-3,84,76,73,77,73,70,95,88,75,30.18,30.09,10,1,12,0.02
2013-7-4,88,80,72,78,74,71,97,82,68,30.19,30.10,15,2,15,0.00
2013-7-5,89,81,72,78,74,70,97,80,65,30.16,30.06,17,2,17,0.00
2013-7-6,91,82,72,77,73,70,96,78,57,30.15,30.00,12,1,15,0.00
2013-7-7,89,76,69,77,71,67,99,86,63,30.06,29.95,25,1,25,0.92
2013-7-8,86,76,68,74,70,67,100,83,58,30.07,29.99,12,1,13,0.00
2013-7-9,84,76,71,76,72,69,95,88,70,30.07,29.94,7,0,9,0.08
2013-7-10,85,78,73,78,74,69,95,87,69,29.96,29.81,9,0,10,0.02
2013-7-11,84,76,70,73,70,67,95,81,62,29.89,29.80,8,0,9,0.00
2013-7-12,77,71,66,70,67,65,99,88,76,30.03,29.88,9,1,9,0.61
2013-7-13,84,73,68,74,70,67,99,90,69,30.15,30.01,8,0,8,0.05
2013-7-14,89,84,75,77,74,72,90,73,62,30.28,30.22,10,1,10,0.04
2013-7-15,94,82,70,78,74,69,99,79,55,30.27,30.15,8,0,8,0.00
2013-7-16,94,83,74,79,74,70,97,78,47,30.22,30.13,12,1,12,0.00
2013-7-17,95,83,72,78,74,69,97,76,46,30.20,30.04,6,0,7,0.00
2013-7-18,95,84,73,82,77,72,99,80,56,30.08,29.95,6,0,6,0.00
2013-7-19,95,83,74,82,76,70,97,81,56,29.97,29.81,12,1,15,0.00
2013-7-20,92,80,72,78,72,69,95,79,54,29.86,29.75,11,1,12,0.00
2013-7-21,84,76,70,75,71,67,96,84,66,29.91,29.84,9,0,9,0.00
2013-7-22,87,76,68,77,72,68,100,90,66,29.91,29.72,11,0,12,0.66
2013-7-23,86,77,70,75,71,69,100,84,61,29.74,29.62,15,1,15,0.04
2013-7-24,81,73,64,70,64,59,98,75,52,29.90,29.65,14,2,14,0.00
2013-7-25,79,67,56,62,58,53,91,74,51,30.02,29.90,9,1,11,0.00
2013-7-26,82,69,56,64,60,55,98,76,49,30.08,29.98,8,0,9,0.00
2013-7-27,81,72,63,73,68,60,97,86,71,30.01,29.86,11,1,11,0.00
2013-7-28,84,74,64,72,68,63,97,85,61,29.96,29.83,12,0,12,0.89
2013-7-29,80,69,56,63,59,55,100,75,47,30.14,29.96,8,1,11,0.01
2013-7-30,82,69,56,66,60,55,98,76,50,30.21,30.10,10,0,10,0.00
2013-7-31,80,69,61,71,66,60,98,88,69,30.12,29.96,12,0,14,0.00
2013-8-1,83,73,67,73,69,67,99,88,67,29.96,29.77,9,0,12,0.12
2013-8-2,85,74,63,70,64,61,99,76,46,29.93,29.84,14,1,15,0.00
2013-8-3,71,68,65,69,65,62,98,92,85,29.94,29.89,8,0,8,0.24
2013-8-4,78,69,60,65,60,55,100,76,47,30.02,29.90,17,2,19,0.00
2013-8-5,79,67,54,62,58,52,98,75,48,30.09,29.98,6,0,7,0.00
2013-8-6,78,69,63,70,65,60,98,89,74,30.03,29.96,8,0,8,0.96
2013-8-7,84,74,68,75,70,67,98,90,72,30.02,29.92,13,1,13,1.02
2013-8-8,82,74,68,76,72,68,100,94,82,29.98,29.92,8,0,10,0.18
2013-8-9,84,76,73,78,74,73,99,94,80,29.92,29.83,17,1,17,0.51
2013-8-10,83,76,68,69,67,64,93,74,55,30.05,29.98,5,0,5,0.00
2013-8-11,85,74,66,74,68,64,98,83,62,30.08,29.95,7,0,10,0.00
2013-8-12,86,76,66,74,70,65,99,83,59,29.99,29.87,7,0,7,0.00
2013-8-13,84,75,67,73,69,60,98,83,63,29.87,29.70,12,1,13,0.36
2013-8-14,72,65,56,60,54,50,90,68,53,30.08,29.81,22,4,22,0.00
2013-8-15,76,63,49,58,54,48,100,75,45,30.18,30.07,8,0,9,0.00
2013-8-16,79,65,51,63,56,49,98,77,47,30.16,30.10,7,0,7,0.00
2013-8-17,79,67,53,64,59,52,97,76,53,30.24,30.16,8,0,10,0.00
2013-8-18,70,66,62,64,62,60,98,89,72,30.23,30.14,8,1,9,0.14
2013-8-19,78,67,59,71,64,58,99,93,78,30.15,30.03,6,0,6,0.01
2013-8-20,84,72,61,72,66,60,100,84,54,30.16,30.06,6,0,8,0.00
2013-8-21,87,74,62,77,69,62,99,86,64,30.17,30.02,12,0,14,0.00
2013-8-22,86,76,67,73,69,65,98,81,62,30.06,29.88,11,0,14,0.00
2013-8-23,74,68,64,70,67,63,99,95,85,30.10,29.91,4,0,5,0.58
2013-8-24,81,68,59,67,62,57,100,81,53,30.30,30.10,8,0,9,0.00
2013-8-25,81,70,61,68,62,57,94,76,54,30.37,30.21,7,0,7,0.00
2013-8-26,86,78,69,71,66,60,84,67,55,30.23,29.93,11,0,11,0.00
2013-8-27,87,68,0,77,60,0,94,61,66,29.95,29.84,10,0,11,0.04
2013-8-28,76,20,0,74,19,0,97,24,93,29.88,29.77,3,0,3,0.00
2013-8-29,86,53,0,74,48,0,100,50,63,29.97,29.81,7,0,7,0.00
2013-8-30,86,82,68,74,73,59,100,74,63,29.99,29.81,11,1,11,0.00
2013-8-31,88,83,75,77,74,72,91,74,64,29.83,29.73,8,0,8,0.00
2013-9-1,88,83,70,77,75,70,98,77,63,29.80,29.70,7,0,7,0.00
2013-9-2,89,85,71,77,75,64,99,73,59,29.77,29.66,9,0,10,0.00
2013-9-3,87,81,70,73,66,57,91,61,47,29.95,29.69,16,3,16,0.00
2013-9-4,81,77,57,61,59,40,98,55,44,30.06,29.94,8,3,10,0.00
2013-9-5,81,78,60,66,60,56,98,56,46,30.10,29.98,15,2,15,0.00
2013-9-6,78,72,52,58,53,48,95,52,41,30.24,30.10,7,0,10,0.00
2013-9-7,80,74,53,64,57,32,98,57,45,30.11,29.89,7,0,8,0.00
2013-9-8,85,79,63,70,66,62,97,65,58,30.02,29.84,12,1,12,0.00
2013-9-9,80,75,62,67,64,50,89,70,64,30.17,30.02,9,0,11,0.00
2013-9-10,91,78,66,77,71,65,97,81,60,30.14,30.02,10,1,10,0.00
2013-9-11,93,81,72,78,74,70,97,80,58,30.11,29.95,9,0,9,0.00
2013-9-12,92,78,69,76,70,65,99,80,51,29.96,29.69,13,1,17,0.00
2013-9-13,76,67,56,66,58,48,94,75,45,29.93,29.68,19,3,20,0.00
2013-9-14,66,56,48,49,47,45,92,72,50,30.15,29.93,12,2,14,0.00
2013-9-15,76,60,44,59,52,43,98,78,51,30.21,30.04,9,0,9,0.00
2013-9-16,71,62,55,61,58,53,98,85,64,30.22,30.00,12,1,12,0.20
2013-9-17,68,56,45,53,46,42,94,72,45,30.41,30.22,8,0,8,0.00
2013-9-18,70,55,40,53,47,39,97,77,52,30.31,30.15,8,0,8,0.00
2013-9-19,77,61,47,62,54,45,97,80,56,30.16,30.03,8,0,9,0.00
2013-9-20,80,66,53,66,60,52,99,82,58,30.05,29.90,10,1,12,0.00
2013-9-21,68,64,60,65,62,60,99,93,86,29.91,29.64,17,2,19,0.52
2013-9-22,71,61,54,60,54,50,100,82,54,29.94,29.70,15,2,15,0.01
2013-9-23,65,56,46,50,46,43,92,71,54,30.08,29.93,14,2,14,0.00
2013-9-24,72,54,39,52,46,38,98,78,44,30.11,29.93,8,0,11,0.00
2013-9-25,74,52,42,54,46,41,100,84,43,29.97,29.87,6,0,7,0.00
2013-9-26,75,58,45,58,51,44,100,80,46,30.05,29.91,6,0,7,0.00
2013-9-27,72,59,48,61,54,47,98,86,64,30.20,30.05,6,0,6,0.00
2013-9-28,68,59,50,59,54,48,98,86,62,30.29,30.19,8,0,8,0.00
2013-9-29,73,57,45,59,51,44,99,83,48,30.19,30.03,7,0,10,0.00
2013-9-30,76,60,46,60,53,46,99,80,51,30.07,29.95,7,0,7,0.00
2013-10-1,80,66,53,66,58,52,98,78,51,30.05,29.93,15,0,15,0.00
2013-10-2,85,69,56,66,60,55,96,76,49,30.06,29.96,11,1,15,0.00
2013-10-3,83,70,59,68,63,58,96,81,58,30.10,29.99,6,0,7,0.00
2013-10-4,86,71,60,70,64,59,99,81,55,30.07,29.97,10,0,10,0.00
2013-10-5,87,74,63,70,66,62,97,78,52,30.06,29.94,11,0,12,0.00
2013-10-6,88,75,62,71,66,61,98,75,49,29.97,29.84,17,2,17,0.00
2013-10-7,74,65,53,68,60,46,97,84,61,30.04,29.67,18,2,24,0.56
2013-10-8,69,56,43,52,47,42,96,72,49,30.27,30.04,12,0,12,0.00
2013-10-9,62,54,46,51,47,43,95,79,50,30.32,30.23,6,0,7,0.01
2013-10-10,55,53,52,54,51,48,99,92,80,30.23,30.01,11,2,13,2.92
2013-10-11,60,56,53,60,56,52,100,100,99,30.01,29.95,10,2,10,0.72
2013-10-12,70,62,57,63,59,55,100,93,71,30.16,29.98,9,0,12,0.20
2013-10-13,58,57,56,58,57,56,100,99,96,30.30,30.15,6,0,6,0.47
2013-10-14,68,58,53,58,55,53,99,89,68,30.32,30.20,7,0,8,0.00
2013-10-15,70,58,50,60,53,49,100,86,59,30.22,30.04,5,0,6,0.00
2013-10-16,71,62,53,63,58,49,96,88,73,30.05,29.86,8,0,9,0.00
2013-10-17,74,65,59,66,61,50,98,88,70,29.87,29.65,19,1,21,0.10
2013-10-18,65,56,45,50,45,41,91,66,48,29.99,29.83,16,2,17,0.00
2013-10-19,62,51,41,57,47,40,100,88,69,29.97,29.73,16,1,17,0.03
2013-10-20,62,51,39,44,39,35,90,66,44,30.07,29.86,16,1,16,0.00
2013-10-21,67,52,36,48,42,34,100,72,44,30.12,29.90,15,1,16,0.00
2013-10-22,60,52,40,51,44,34,88,72,44,29.90,29.81,15,1,15,0.00
2013-10-23,50,43,35,40,37,33,95,81,60,29.89,29.67,11,1,12,0.01
2013-10-24,48,42,36,37,33,30,88,73,51,30.12,29.89,19,1,19,0.00
2013-10-25,52,40,29,38,32,27,95,73,51,30.30,30.12,18,2,19,0.00
2013-10-26,56,43,31,35,31,27,88,65,39,30.29,29.90,18,2,18,0.00
2013-10-27,58,50,40,40,36,33,83,58,43,30.05,29.94,14,1,22,0.00
2013-10-28,60,47,30,44,38,29,95,72,49,30.26,30.17,6,0,6,0.00
2013-10-29,61,46,32,45,39,30,100,79,52,30.39,30.26,6,0,6,0.00
2013-10-30,68,57,45,56,50,41,96,80,64,30.29,30.10,9,0,9,0.05
2013-10-31,67,62,57,61,58,55,95,88,75,30.13,29.67,18,2,18,0.05
2013-11-1,73,64,52,63,55,46,98,74,43,29.67,29.48,24,3,24,0.26
2013-11-2,61,53,44,51,44,39,96,75,53,29.87,29.63,17,2,18,0.00
2013-11-3,55,48,36,42,35,26,80,63,35,30.44,29.87,18,3,18,0.00
2013-11-4,45,36,26,28,26,22,85,67,48,30.62,30.43,7,0,7,0.00
2013-11-5,53,44,30,45,36,26,89,76,63,30.61,30.41,7,0,7,0.00
2013-11-6,68,58,48,54,50,44,91,75,60,30.42,29.97,19,3,19,0.00
2013-11-7,60,53,41,54,44,26,95,74,50,30.07,29.83,21,4,25,0.19
2013-11-8,49,41,30,32,28,24,80,59,42,30.30,30.05,28,3,29,0.00
2013-11-9,54,41,27,34,30,23,91,65,44,30.32,29.99,15,2,16,0.00
2013-11-10,58,48,41,39,32,29,69,56,42,30.22,29.95,25,4,25,0.00
2013-11-11,56,45,30,36,32,26,88,60,41,30.27,29.98,10,1,12,0.00
2013-11-12,52,38,29,39,25,17,81,59,45,30.39,29.96,23,6,23,0.00
2013-11-13,42,34,29,24,21,19,71,60,43,30.48,30.35,17,3,20,0.00
2013-11-14,58,40,26,28,21,17,72,50,23,30.35,30.18,12,1,12,0.00
2013-11-15,60,43,26,34,27,22,89,57,27,30.26,30.14,6,0,7,0.00
2013-11-16,58,49,42,50,45,34,95,85,59,30.28,30.17,10,1,11,0.01
2013-11-17,63,57,51,60,55,50,96,92,85,30.18,29.64,19,4,23,0.01
2013-11-18,64,58,48,60,38,29,91,51,31,29.92,29.63,26,5,26,0.12
2013-11-19,48,41,33,31,28,25,71,59,49,30.36,29.92,23,6,23,0.00
2013-11-20,46,35,24,28,23,16,92,65,39,30.55,30.35,9,0,9,0.00
2013-11-21,48,38,29,40,32,24,89,79,67,30.56,30.33,7,0,8,0.00
2013-11-22,57,49,41,50,45,38,94,87,76,30.34,29.99,16,1,17,0.00
2013-11-23,52,40,28,45,27,11,79,61,46,30.22,30.03,25,6,26,0.00
2013-11-24,29,25,20,13,10,7,62,54,45,30.50,30.21,27,8,32,0.00
2013-11-25,37,27,16,16,12,8,77,54,35,30.54,30.28,16,2,16,0.00
2013-11-26,35,34,32,32,25,16,95,72,46,30.29,30.04,11,0,11,0.38
2013-11-27,38,34,27,36,28,17,98,77,62,30.04,29.56,25,8,28,0.14
2013-11-28,35,30,24,23,18,14,76,62,51,30.45,30.03,23,4,23,0.00
2013-11-29,40,30,24,26,22,19,89,71,53,30.71,30.44,14,1,15,0.00
2013-11-30,35,28,19,24,21,16,93,76,59,30.70,30.34,8,1,12,0.00
2013-12-1,39,31,19,30,25,16,92,79,68,30.34,30.00,5,0,6,0.00
2013-12-2,45,38,34,36,32,30,86,80,69,30.00,29.85,3,0,3,0.00
2013-12-3,53,41,33,41,35,31,93,81,61,29.95,29.86,7,0,8,0.00
2013-12-4,57,44,31,48,40,30,96,86,66,30.07,29.94,9,0,9,0.00
2013-12-5,66,57,44,59,54,42,99,89,74,30.02,29.87,13,1,14,0.04
2013-12-6,59,45,36,58,44,35,98,96,94,30.17,29.83,16,3,17,2.04
2013-12-7,38,34,28,35,29,21,97,82,68,30.53,30.13,19,4,20,0.01
2013-12-8,28,26,24,27,22,18,100,86,74,30.57,30.30,10,0,10,0.00
2013-12-9,37,32,28,35,30,27,98,95,89,30.31,30.02,5,0,5,0.26
2013-12-10,39,31,24,36,28,18,98,87,68,30.20,29.98,16,1,17,0.25
2013-12-11,35,27,20,21,18,15,91,69,51,30.38,30.19,11,1,14,0.09
2013-12-12,32,26,20,24,12,7,90,57,37,30.42,30.22,18,3,18,0.00
2013-12-13,43,31,21,21,16,9,77,54,40,30.29,30.18,12,2,13,0.11
2013-12-14,37,32,27,34,29,21,97,89,77,30.31,29.72,12,1,12,0.27
2013-12-15,42,33,29,38,28,23,98,83,63,29.92,29.63,16,2,18,0.18
2013-12-16,35,31,27,26,23,19,85,73,65,30.16,29.92,13,1,16,0.00
2013-12-17,37,32,28,32,28,25,93,86,79,30.12,29.91,9,1,11,0.02
2013-12-18,37,31,24,28,23,19,95,72,58,30.20,29.98,14,2,17,0.00
2013-12-19,52,38,23,34,27,19,88,66,48,30.17,30.03,10,1,10,0.01
2013-12-20,53,47,40,37,34,30,70,60,50,30.06,29.93,7,1,12,0.00
2013-12-21,66,57,47,59,48,37,82,72,62,29.96,29.81,12,3,14,0.00
2013-12-22,68,63,58,64,59,55,97,86,68,29.94,29.72,20,4,22,0.20
2013-12-23,58,50,34,57,45,25,98,84,66,30.23,29.84,21,4,21,0.47
2013-12-24,39,30,21,28,19,9,82,63,46,30.47,30.18,18,5,26,0.00
2013-12-25,30,24,17,16,13,9,76,63,52,30.57,30.32,13,3,18,0.00
2013-12-26,45,32,24,28,20,16,74,61,45,30.34,30.20,19,2,19,0.00
2013-12-27,50,36,23,27,21,17,82,57,31,30.39,30.28,16,1,16,0.00
2013-12-28,57,42,30,32,27,22,72,55,36,30.30,30.07,14,2,14,0.00
2013-12-29,46,44,41,44,39,28,99,85,51,30.08,29.53,13,1,15,1.12
2013-12-30,46,38,27,41,30,20,89,74,65,30.16,29.79,17,3,21,0.00
2013-12-31,41,30,26,29,21,17,82,69,51,30.30,30.08,28,2,29,0.00
2014-1-1,48,33,24,29,24,17,86,70,46,30.36,30.08,12,1,12,0.00
2014-1-2,33,29,25,30,26,23,95,89,82,30.09,29.63,5,0,6,0.00